Time;durP1;ratioP1;P1;durP2;ratioP2;P2;SDS_P1;SDS_P2;PMS_P1;PMS_P2;Temp;Humidity;BMP_temperature;BMP_pressure;BME280_temperature;BME280_humidity;BME280_pressure;Samples;Min_cycle;Max_cycle;Signal;HPM_P1;HPM_P2
2024/01/15 00:00:10;;;;;;;15.07;2.63;;;2.50;1.00;;;;;;5053427;28;20169;-71
2024/01/15 00:02:35;;;;;;;5.00;3.60;;;2.60;1.00;;;;;;5053357;28;20432;-72
2024/01/15 00:05:01;;;;;;;4.47;2.00;;;2.60;1.00;;;;;;5052501;28;20452;-70
2024/01/15 00:07:27;;;;;;;13.30;2.60;;;2.70;1.00;;;;;;5052185;28;20273;-72
2024/01/15 00:09:52;;;;;;;5.80;3.03;;;2.70;1.00;;;;;;5053186;28;20627;-80
2024/01/15 00:12:18;;;;;;;5.87;3.10;;;2.70;1.00;;;;;;5052394;28;20175;-78
2024/01/15 00:14:44;;;;;;;7.90;2.60;;;2.60;1.00;;;;;;5052373;28;20246;-70
2024/01/15 00:17:09;;;;;;;9.13;3.50;;;2.60;1.00;;;;;;5053236;28;20159;-70
2024/01/15 00:19:35;;;;;;;2.83;2.00;;;2.50;1.00;;;;;;5053066;28;20228;-69
2024/01/15 00:22:01;;;;;;;2.93;2.60;;;2.30;1.00;;;;;;5053063;28;20201;-77
2024/01/15 00:24:26;;;;;;;3.33;2.20;;;2.10;1.00;;;;;;5051472;28;20182;-69
2024/01/15 00:26:53;;;;;;;4.13;1.93;;;1.90;1.00;;;;;;5051584;28;20171;-76
2024/01/15 00:29:19;;;;;;;5.07;2.50;;;1.90;1.00;;;;;;5052598;28;20187;-72
2024/01/15 00:31:44;;;;;;;4.77;2.20;;;1.90;1.00;;;;;;5053096;28;20402;-77
2024/01/15 00:34:10;;;;;;;8.97;2.53;;;1.90;1.00;;;;;;5052968;28;20198;-69
2024/01/15 00:36:36;;;;;;;5.10;2.80;;;1.90;1.00;;;;;;5051079;28;20709;-71
2024/01/15 00:39:02;;;;;;;6.13;2.50;;;1.90;1.00;;;;;;5051651;28;20187;-70
2024/01/15 00:41:27;;;;;;;2.70;2.13;;;2.00;1.00;;;;;;5052883;28;20655;-68
2024/01/15 00:43:53;;;;;;;6.60;2.70;;;2.00;1.00;;;;;;5051344;28;20179;-68
2024/01/15 00:46:19;;;;;;;4.87;2.17;;;2.10;4.20;;;;;;5051588;28;20409;-68
2024/01/15 00:48:45;;;;;;;7.93;2.30;;;2.20;21.50;;;;;;5052854;28;20505;-72
2024/01/15 00:51:10;;;;;;;7.30;2.50;;;2.20;36.30;;;;;;5052859;28;20167;-70
2024/01/15 00:53:36;;;;;;;6.27;3.10;;;2.30;54.00;;;;;;5052817;28;20197;-72
2024/01/15 00:56:03;;;;;;;7.13;2.93;;;2.30;63.60;;;;;;5051833;28;20163;-75
2024/01/15 00:58:28;;;;;;;6.57;2.20;;;2.30;75.30;;;;;;5052645;28;20185;-70
2024/01/15 01:00:55;;;;;;;14.70;3.07;;;2.30;75.40;;;;;;5052838;28;20405;-74
2024/01/15 01:03:21;;;;;;;6.40;2.63;;;2.30;75.40;;;;;;5052116;28;20194;-75
2024/01/15 01:05:49;;;;;;;10.40;4.03;;;2.30;83.40;;;;;;5051772;28;20425;-72
2024/01/15 01:08:15;;;;;;;6.63;2.67;;;2.40;92.20;;;;;;5052644;28;20830;-73
2024/01/15 01:10:42;;;;;;;7.90;3.07;;;2.40;94.30;;;;;;5052561;28;20433;-69
2024/01/15 01:13:08;;;;;;;11.73;3.57;;;2.40;93.20;;;;;;5052563;28;20449;-67
2024/01/15 01:15:34;;;;;;;6.20;3.73;;;2.40;94.80;;;;;;5051850;28;20397;-66
2024/01/15 01:18:00;;;;;;;22.77;3.87;;;2.40;95.60;;;;;;5052619;28;20496;-73
2024/01/15 01:20:25;;;;;;;6.10;3.87;;;2.40;94.80;;;;;;5052508;28;20528;-73
2024/01/15 01:22:51;;;;;;;14.50;4.47;;;2.40;95.00;;;;;;5050856;28;20174;-73
2024/01/15 01:25:16;;;;;;;17.77;4.40;;;2.40;94.60;;;;;;5050617;28;20171;-72
2024/01/15 01:27:42;;;;;;;15.73;3.83;;;2.40;95.30;;;;;;5052597;28;20655;-66
2024/01/15 01:30:09;;;;;;;15.87;4.60;;;2.40;91.10;;;;;;5051422;28;20611;-72
2024/01/15 01:32:35;;;;;;;14.87;3.60;;;2.30;75.30;;;;;;5052320;28;20194;-71
2024/01/15 01:35:01;;;;;;;14.00;3.90;;;2.30;75.30;;;;;;5051701;28;20401;-73
2024/01/15 01:37:26;;;;;;;19.73;5.17;;;2.40;75.40;;;;;;5052479;28;20405;-70
2024/01/15 01:39:52;;;;;;;11.77;4.90;;;2.30;63.70;;;;;;5054433;28;20249;-66
2024/01/15 01:42:18;;;;;;;9.90;4.33;;;2.30;53.30;;;;;;5055965;28;20163;-70
2024/01/15 01:44:43;;;;;;;21.53;3.77;;;2.30;47.50;;;;;;5054973;28;20183;-69
2024/01/15 01:47:09;;;;;;;15.10;4.47;;;2.30;29.50;;;;;;5054927;28;20166;-71
2024/01/15 01:49:36;;;;;;;16.83;4.07;;;2.20;23.90;;;;;;5054799;28;20220;-72
2024/01/15 01:52:05;;;;;;;15.93;3.60;;;2.20;9.80;;;;;;5055879;28;20170;-65
2024/01/15 01:54:32;;;;;;;16.73;3.80;;;2.20;1.00;;;;;;5053802;28;21057;-74
2024/01/15 01:56:58;;;;;;;19.33;5.10;;;2.20;1.00;;;;;;5055626;28;20513;-72
2024/01/15 01:59:27;;;;;;;6.97;5.00;;;2.20;1.00;;;;;;5053924;28;20536;-66
2024/01/15 02:01:54;;;;;;;13.13;4.47;;;2.10;1.00;;;;;;5054611;28;20202;-66
2024/01/15 02:04:21;;;;;;;16.97;3.70;;;2.20;1.00;;;;;;5055550;28;20481;-66
2024/01/15 02:06:48;;;;;;;7.50;3.47;;;2.10;1.00;;;;;;5054354;28;20492;-72
2024/01/15 02:09:15;;;;;;;23.10;3.87;;;2.10;1.00;;;;;;5055422;28;20508;-70
2024/01/15 02:11:42;;;;;;;20.57;4.63;;;2.10;1.00;;;;;;5055476;28;20405;-73
2024/01/15 02:14:08;;;;;;;12.77;3.40;;;2.10;1.00;;;;;;5055170;28;20949;-72
2024/01/15 02:16:34;;;;;;;22.50;4.43;;;2.10;1.00;;;;;;5053874;28;20409;-72
2024/01/15 02:19:00;;;;;;;9.40;3.60;;;2.10;1.00;;;;;;5055102;28;20421;-67
2024/01/15 02:21:28;;;;;;;8.80;3.30;;;2.00;1.00;;;;;;5055151;28;20171;-67
2024/01/15 02:23:57;;;;;;;11.87;4.53;;;2.10;1.00;;;;;;5055237;28;20171;-69
2024/01/15 02:26:23;;;;;;;15.13;3.10;;;2.10;1.00;;;;;;5054360;28;20401;-66
2024/01/15 02:28:50;;;;;;;5.07;2.57;;;2.10;1.00;;;;;;5054982;28;20424;-66
2024/01/15 02:31:16;;;;;;;11.47;3.80;;;2.00;1.00;;;;;;5054011;28;20420;-71
2024/01/15 02:33:43;;;;;;;5.73;2.87;;;2.10;1.00;;;;;;5054329;28;20465;-67
2024/01/15 02:36:09;;;;;;;9.43;3.43;;;2.10;1.00;;;;;;5053941;28;20163;-67
2024/01/15 02:38:35;;;;;;;10.20;3.43;;;2.10;1.00;;;;;;5054835;28;20428;-66
2024/01/15 02:41:00;;;;;;;15.77;4.63;;;2.20;1.00;;;;;;5054814;28;20393;-73
2024/01/15 02:43:26;;;;;;;11.03;3.53;;;2.20;1.00;;;;;;5054846;28;20174;-73
2024/01/15 02:45:52;;;;;;;6.27;3.53;;;2.30;1.00;;;;;;5053927;28;20198;-74
2024/01/15 02:48:17;;;;;;;9.33;3.10;;;2.30;1.00;;;;;;5054679;28;20285;-67
2024/01/15 02:50:43;;;;;;;6.30;3.20;;;2.20;1.00;;;;;;5052610;28;20189;-66
2024/01/15 02:53:09;;;;;;;13.40;5.17;;;2.20;1.00;;;;;;5054491;28;20210;-75
2024/01/15 02:55:34;;;;;;;13.93;4.70;;;2.10;1.00;;;;;;5053720;28;20206;-74
2024/01/15 02:58:00;;;;;;;10.23;3.33;;;2.10;1.00;;;;;;5054516;28;20183;-74
2024/01/15 03:00:26;;;;;;;5.70;3.20;;;2.10;1.00;;;;;;5053440;28;20181;-75
2024/01/15 03:02:51;;;;;;;5.57;3.50;;;2.10;1.00;;;;;;5054474;28;20194;-66
2024/01/15 03:05:17;;;;;;;20.47;5.07;;;2.10;1.00;;;;;;5053242;28;20655;-74
2024/01/15 03:07:43;;;;;;;14.63;3.40;;;2.10;1.00;;;;;;5053872;28;20216;-70
2024/01/15 03:10:09;;;;;;;11.20;3.50;;;2.10;1.00;;;;;;5054028;28;20459;-67
2024/01/15 03:12:35;;;;;;;8.67;3.30;;;2.10;1.00;;;;;;5054244;28;20455;-67
2024/01/15 03:15:01;;;;;;;8.80;2.90;;;2.10;1.00;;;;;;5052298;28;20462;-71
2024/01/15 03:17:27;;;;;;;11.97;3.50;;;2.10;1.00;;;;;;5053739;28;20171;-66
2024/01/15 03:19:53;;;;;;;6.33;3.47;;;2.10;1.00;;;;;;5052811;28;20408;-68
2024/01/15 03:22:18;;;;;;;11.93;3.20;;;2.00;1.00;;;;;;5054031;28;20528;-67
2024/01/15 03:24:44;;;;;;;6.50;3.70;;;1.90;1.00;;;;;;5053142;28;20178;-69
2024/01/15 03:27:10;;;;;;;5.57;3.10;;;1.90;1.00;;;;;;5053260;28;20170;-73
2024/01/15 03:29:36;;;;;;;7.30;2.90;;;1.90;1.00;;;;;;5053814;28;20425;-66
2024/01/15 03:32:01;;;;;;;8.80;4.03;;;1.80;1.00;;;;;;5054018;28;20181;-67
2024/01/15 03:34:27;;;;;;;8.80;2.87;;;1.70;1.00;;;;;;5052268;28;20240;-73
2024/01/15 03:36:53;;;;;;;11.17;3.40;;;1.70;1.00;;;;;;5051857;28;20245;-67
2024/01/15 03:39:18;;;;;;;7.60;2.80;;;1.70;1.00;;;;;;5052393;28;20269;-67
2024/01/15 03:41:44;;;;;;;13.53;2.90;;;1.70;1.00;;;;;;5053665;28;20171;-68
2024/01/15 03:44:10;;;;;;;7.43;3.23;;;1.70;1.00;;;;;;5053748;28;20167;-70
2024/01/15 03:46:36;;;;;;;16.27;4.47;;;1.70;1.00;;;;;;5050853;28;20421;-74
2024/01/15 03:49:02;;;;;;;4.90;3.20;;;1.70;1.00;;;;;;5052449;28;20245;-74
2024/01/15 03:51:27;;;;;;;3.70;2.33;;;1.60;1.00;;;;;;5053546;28;20158;-72
2024/01/15 03:53:53;;;;;;;7.60;3.57;;;1.60;1.00;;;;;;5053439;28;20197;-71
2024/01/15 03:56:19;;;;;;;3.23;2.60;;;1.70;1.00;;;;;;5052661;28;20633;-72
2024/01/15 03:58:44;;;;;;;12.10;3.00;;;1.80;1.00;;;;;;5053406;28;20193;-72
2024/01/15 04:01:10;;;;;;;5.20;2.70;;;1.80;1.00;;;;;;5052862;28;20173;-67
2024/01/15 04:03:36;;;;;;;5.77;3.00;;;1.70;1.00;;;;;;5053235;28;20167;-68
2024/01/15 04:06:06;;;;;;;22.63;4.13;;;1.70;1.00;;;;;;5051757;28;20432;-68
2024/01/15 04:08:31;;;;;;;5.73;3.07;;;1.70;1.00;;;;;;5053264;28;20832;-67
2024/01/15 04:10:57;;;;;;;25.53;3.57;;;1.70;1.00;;;;;;5052062;28;20440;-68
2024/01/15 04:13:23;;;;;;;5.00;3.03;;;1.80;1.00;;;;;;5053223;28;20197;-75
2024/01/15 04:15:49;;;;;;;7.10;3.00;;;1.80;1.00;;;;;;5051192;28;20258;-70
2024/01/15 04:18:17;;;;;;;9.30;3.40;;;1.80;1.00;;;;;;5053051;28;20193;-70
2024/01/15 04:20:42;;;;;;;9.70;3.53;;;1.80;1.00;;;;;;5053274;28;20158;-69
2024/01/15 04:23:08;;;;;;;10.00;3.87;;;1.90;1.00;;;;;;5052540;28;20447;-68
2024/01/15 04:25:34;;;;;;;10.40;3.07;;;1.90;1.00;;;;;;5052164;28;20237;-68
2024/01/15 04:28:00;;;;;;;6.60;3.40;;;1.90;1.00;;;;;;5052961;28;20278;-73
2024/01/15 04:30:25;;;;;;;8.20;3.10;;;2.00;1.00;;;;;;5053136;28;20167;-77
2024/01/15 04:32:51;;;;;;;5.60;3.23;;;2.10;99.90;;;;;;5051669;28;20608;-76
2024/01/15 04:35:17;;;;;;;7.43;3.33;;;2.10;99.90;;;;;;5051063;28;20265;-75
2024/01/15 04:37:43;;;;;;;8.73;3.20;;;2.10;99.90;;;;;;5053018;28;20186;-71
2024/01/15 04:40:09;;;;;;;16.17;3.90;;;2.10;99.90;;;;;;5052468;28;20170;-75
2024/01/15 04:42:35;;;;;;;5.10;3.00;;;2.10;99.90;;;;;;5052707;28;20390;-69
2024/01/15 04:45:00;;;;;;;10.73;2.60;;;2.20;99.90;;;;;;5050977;28;20458;-75
2024/01/15 04:47:26;;;;;;;6.07;3.00;;;2.20;99.90;;;;;;5052837;28;20245;-75
2024/01/15 04:49:52;;;;;;;9.93;3.50;;;2.20;99.90;;;;;;5052916;28;20293;-68
2024/01/15 04:52:18;;;;;;;7.03;3.30;;;2.20;99.90;;;;;;5052807;28;20654;-75
2024/01/15 04:54:43;;;;;;;8.87;3.67;;;2.20;99.90;;;;;;5051911;28;20213;-77
2024/01/15 04:57:09;;;;;;;14.90;4.20;;;2.10;99.90;;;;;;5052911;28;20183;-68
2024/01/15 04:59:35;;;;;;;5.93;3.60;;;2.10;99.90;;;;;;5051049;28;20199;-71
2024/01/15 05:02:00;;;;;;;15.93;4.90;;;2.10;99.90;;;;;;5052684;28;20624;-77
2024/01/15 05:04:26;;;;;;;7.00;3.53;;;2.20;99.90;;;;;;5051298;28;20179;-76
2024/01/15 05:06:52;;;;;;;9.40;3.70;;;2.20;99.90;;;;;;5052013;28;20187;-76
2024/01/15 05:09:18;;;;;;;10.20;3.60;;;2.20;99.90;;;;;;5052631;28;20191;-77
2024/01/15 05:11:44;;;;;;;7.50;3.13;;;2.20;99.90;;;;;;5051734;28;20421;-68
2024/01/15 05:14:09;;;;;;;7.60;3.53;;;2.20;99.90;;;;;;5055896;28;20187;-75
2024/01/15 05:16:37;;;;;;;18.97;3.90;;;2.20;99.90;;;;;;5054922;28;20242;-68
2024/01/15 05:19:03;;;;;;;18.20;3.00;;;2.20;99.90;;;;;;5055988;28;20674;-68
2024/01/15 05:21:29;;;;;;;4.60;3.37;;;2.20;99.90;;;;;;5056424;28;20401;-68
2024/01/15 05:23:55;;;;;;;11.13;3.20;;;2.20;99.90;;;;;;5056388;28;20425;-68
2024/01/15 05:26:20;;;;;;;8.03;3.33;;;2.20;99.90;;;;;;5055330;28;20194;-68
2024/01/15 05:28:46;;;;;;;4.50;3.17;;;2.20;99.90;;;;;;5056204;28;20547;-73
2024/01/15 05:31:12;;;;;;;8.37;2.40;;;2.20;99.90;;;;;;5056254;28;20615;-77
2024/01/15 05:33:37;;;;;;;13.53;2.87;;;2.20;99.90;;;;;;5056155;28;20521;-74
2024/01/15 05:36:04;;;;;;;10.47;3.73;;;2.20;99.90;;;;;;5054684;28;20178;-71
2024/01/15 05:38:29;;;;;;;3.03;2.50;;;2.20;99.90;;;;;;5055763;28;20643;-68
2024/01/15 05:40:55;;;;;;;11.10;3.43;;;2.20;99.90;;;;;;5055966;28;20397;-78
2024/01/15 05:43:20;;;;;;;4.43;2.87;;;2.10;99.90;;;;;;5054973;28;20171;-77
2024/01/15 05:45:46;;;;;;;3.40;2.17;;;2.00;99.90;;;;;;5055020;28;20516;-77
2024/01/15 05:48:12;;;;;;;8.87;2.53;;;1.90;99.90;;;;;;5055770;28;20183;-68
2024/01/15 05:50:38;;;;;;;6.27;2.77;;;1.90;99.90;;;;;;5055757;28;20686;-77
2024/01/15 05:53:04;;;;;;;3.67;2.90;;;2.00;99.90;;;;;;5053945;28;20445;-78
2024/01/15 05:55:30;;;;;;;6.57;2.30;;;2.00;99.90;;;;;;5054961;28;20163;-75
2024/01/15 05:57:55;;;;;;;15.30;2.70;;;2.00;99.90;;;;;;5055560;28;20422;-69
2024/01/15 06:00:21;;;;;;;2.90;2.10;;;2.10;99.90;;;;;;5054312;28;20635;-70
2024/01/15 06:02:47;;;;;;;8.67;3.30;;;2.10;99.90;;;;;;5055175;28;20178;-75
2024/01/15 06:05:12;;;;;;;13.77;3.23;;;2.00;99.90;;;;;;5053347;28;20170;-70
2024/01/15 06:07:38;;;;;;;4.25;2.35;;;2.00;99.90;;;;;;5054212;28;20416;-69
2024/01/15 06:10:04;;;;;;;2.27;1.90;;;2.10;99.90;;;;;;5054745;28;20171;-74
2024/01/15 06:12:31;;;;;;;8.23;1.90;;;2.10;99.90;;;;;;5055252;28;20564;-73
2024/01/15 06:14:56;;;;;;;7.90;2.40;;;2.10;99.90;;;;;;5054367;28;20409;-79
2024/01/15 06:17:22;;;;;;;7.33;3.00;;;2.10;99.90;;;;;;5055282;28;20493;-70
2024/01/15 06:19:48;;;;;;;5.10;2.10;;;2.10;99.90;;;;;;5055352;28;20535;-78
2024/01/15 06:22:14;;;;;;;3.37;2.50;;;2.10;99.90;;;;;;5055588;28;20174;-75
2024/01/15 06:24:39;;;;;;;6.97;2.70;;;1.90;99.90;;;;;;5052572;28;20250;-69
2024/01/15 06:27:05;;;;;;;9.67;2.30;;;1.80;99.90;;;;;;5053650;28;20172;-74
2024/01/15 06:29:31;;;;;;;3.73;2.43;;;1.80;99.90;;;;;;5054385;28;20198;-73
2024/01/15 06:31:57;;;;;;;4.17;2.40;;;1.90;99.90;;;;;;5055079;28;20258;-68
2024/01/15 06:34:23;;;;;;;4.67;2.67;;;1.90;99.90;;;;;;5053559;28;20532;-74
2024/01/15 06:36:49;;;;;;;5.50;2.33;;;1.90;99.90;;;;;;5053074;28;20175;-80
2024/01/15 06:39:14;;;;;;;4.70;3.10;;;1.90;99.90;;;;;;5053555;28;20191;-69
2024/01/15 06:41:43;;;;;;;10.47;2.20;;;1.90;99.90;;;;;;5054788;28;20163;-70
2024/01/15 06:44:12;;;;;;;7.00;3.10;;;2.00;99.90;;;;;;5054715;28;20167;-73
2024/01/15 06:46:45;;;;;;;8.60;2.90;;;1.90;99.90;;;;;;5053848;28;20464;-71
2024/01/15 06:49:11;;;;;;;3.97;2.53;;;1.90;99.90;;;;;;5053823;28;20433;-76
2024/01/15 06:51:37;;;;;;;6.10;3.03;;;1.90;99.90;;;;;;5054654;28;20403;-74
2024/01/15 06:54:02;;;;;;;4.43;1.90;;;1.90;99.90;;;;;;5054580;28;20802;-72
2024/01/15 06:56:28;;;;;;;5.53;2.30;;;1.90;99.90;;;;;;5052282;28;20397;-75
2024/01/15 06:58:54;;;;;;;6.03;3.37;;;1.90;99.90;;;;;;5054381;28;20193;-69
2024/01/15 07:01:19;;;;;;;4.10;2.60;;;1.90;99.90;;;;;;5054427;28;20187;-69
2024/01/15 07:03:45;;;;;;;9.27;2.37;;;1.80;99.90;;;;;;5054393;28;20574;-79
2024/01/15 07:06:11;;;;;;;10.00;3.00;;;1.80;99.90;;;;;;5052783;28;20217;-73
2024/01/15 07:08:37;;;;;;;6.47;4.40;;;1.70;99.90;;;;;;5054237;28;20433;-78
2024/01/15 07:11:05;;;;;;;7.97;2.30;;;1.70;99.90;;;;;;5054115;28;20451;-69
2024/01/15 07:13:30;;;;;;;3.50;2.40;;;1.80;99.90;;;;;;5054191;28;20542;-70
2024/01/15 07:15:56;;;;;;;3.03;2.80;;;1.80;99.90;;;;;;5053349;28;20397;-68
2024/01/15 07:18:22;;;;;;;3.93;2.53;;;1.90;99.90;;;;;;5054177;28;20559;-71
2024/01/15 07:20:47;;;;;;;3.10;2.00;;;1.80;99.90;;;;;;5054137;28;20170;-71
2024/01/15 07:23:13;;;;;;;6.53;2.30;;;1.80;99.90;;;;;;5052477;28;20719;-78
2024/01/15 07:25:39;;;;;;;4.83;2.33;;;1.90;99.90;;;;;;5051561;28;20248;-79
2024/01/15 07:28:05;;;;;;;4.83;2.30;;;1.90;99.90;;;;;;5053925;28;20240;-70
2024/01/15 07:30:31;;;;;;;4.47;2.70;;;2.00;99.90;;;;;;5053963;28;20170;-80
2024/01/15 07:32:56;;;;;;;3.77;2.53;;;2.00;99.90;;;;;;5053842;28;20456;-72
2024/01/15 07:35:22;;;;;;;3.73;2.33;;;2.00;99.90;;;;;;5052605;28;20171;-69
2024/01/15 07:37:48;;;;;;;2.70;2.47;;;2.00;99.90;;;;;;5053142;28;20190;-78
2024/01/15 07:40:13;;;;;;;10.97;5.07;;;2.10;99.90;;;;;;5053748;28;20208;-69
2024/01/15 07:42:39;;;;;;;3.43;2.30;;;2.00;99.90;;;;;;5053623;28;20309;-79
2024/01/15 07:45:05;;;;;;;3.07;2.70;;;2.00;99.90;;;;;;5052252;28;20250;-70
2024/01/15 07:47:31;;;;;;;3.83;2.60;;;1.90;99.90;;;;;;5053524;28;20398;-78
2024/01/15 07:49:57;;;;;;;7.00;2.20;;;1.90;99.90;;;;;;5053648;28;20393;-71
2024/01/15 07:52:23;;;;;;;3.23;2.57;;;1.80;99.90;;;;;;5053605;28;20394;-81
2024/01/15 07:54:48;;;;;;;6.30;2.50;;;1.80;99.90;;;;;;5051453;28;20238;-69
2024/01/15 07:57:14;;;;;;;2.90;2.10;;;1.80;99.90;;;;;;5052417;28;20691;-74
2024/01/15 07:59:40;;;;;;;2.90;2.70;;;1.80;99.90;;;;;;5052888;28;20187;-78
2024/01/15 08:02:06;;;;;;;6.27;2.83;;;1.70;99.90;;;;;;5052012;28;20616;-80
2024/01/15 08:04:31;;;;;;;3.63;2.43;;;1.50;99.90;;;;;;5052643;28;20163;-74
2024/01/15 08:06:57;;;;;;;7.13;1.93;;;1.50;99.90;;;;;;5053209;28;20602;-80
2024/01/15 08:09:23;;;;;;;3.73;2.63;;;1.50;99.90;;;;;;5053009;28;20240;-80
2024/01/15 08:11:49;;;;;;;5.13;2.60;;;1.50;99.90;;;;;;5053213;28;20894;-79
2024/01/15 08:14:15;;;;;;;4.27;2.77;;;1.40;99.90;;;;;;5053219;28;20666;-76
2024/01/15 08:16:41;;;;;;;2.53;2.30;;;1.40;99.90;;;;;;5052409;28;20198;-79
2024/01/15 08:19:07;;;;;;;2.20;2.07;;;1.40;99.90;;;;;;5053161;28;20500;-72
2024/01/15 08:21:32;;;;;;;8.17;2.93;;;1.40;99.90;;;;;;5052360;28;20498;-72
2024/01/15 08:23:59;;;;;;;2.30;2.20;;;1.40;99.90;;;;;;5053013;28;20170;-79
2024/01/15 08:26:25;;;;;;;4.40;2.77;;;1.40;99.90;;;;;;5050920;28;20213;-81
2024/01/15 08:28:51;;;;;;;7.43;2.67;;;1.30;99.90;;;;;;5052053;28;20791;-81
2024/01/15 08:31:17;;;;;;;8.40;2.80;;;1.30;99.90;;;;;;5053009;28;20402;-71
2024/01/15 08:33:43;;;;;;;5.73;2.53;;;1.30;99.90;;;;;;5052892;28;20472;-70
2024/01/15 08:36:12;;;;;;;3.83;2.97;;;1.40;99.90;;;;;;5051064;28;20937;-69
2024/01/15 08:38:38;;;;;;;4.70;2.40;;;1.30;99.90;;;;;;5051775;28;20195;-80
2024/01/15 08:41:04;;;;;;;5.53;2.67;;;1.40;99.90;;;;;;5051243;28;20460;-80
2024/01/15 08:43:33;;;;;;;3.40;3.10;;;1.40;99.90;;;;;;5053343;28;20417;-69
2024/01/15 08:45:59;;;;;;;2.60;2.40;;;1.30;99.90;;;;;;5051641;28;20412;-76
2024/01/15 08:48:27;;;;;;;2.80;2.70;;;1.40;99.90;;;;;;5055100;28;20417;-70
2024/01/15 08:50:53;;;;;;;2.80;2.33;;;1.40;99.90;;;;;;5056880;28;20163;-80
2024/01/15 08:53:19;;;;;;;2.80;2.60;;;1.40;99.90;;;;;;5056744;28;20453;-76
2024/01/15 08:55:45;;;;;;;2.80;2.60;;;1.50;99.90;;;;;;5054569;28;20755;-69
2024/01/15 08:58:11;;;;;;;4.67;2.87;;;1.50;99.90;;;;;;5056133;28;20183;-80
2024/01/15 09:00:36;;;;;;;2.80;2.20;;;1.50;99.90;;;;;;5055759;28;20402;-70
2024/01/15 09:03:03;;;;;;;6.13;3.00;;;1.40;99.90;;;;;;5056782;28;20182;-76
2024/01/15 09:05:28;;;;;;;3.80;2.40;;;1.40;99.90;;;;;;5055677;28;20177;-80
2024/01/15 09:07:54;;;;;;;4.23;2.70;;;1.30;99.90;;;;;;5055464;28;20437;-80
2024/01/15 09:10:20;;;;;;;2.07;1.97;;;1.20;99.90;;;;;;5056637;28;20183;-79
2024/01/15 09:12:46;;;;;;;3.93;2.30;;;1.10;98.40;;;;;;5056347;28;20443;-79
2024/01/15 09:15:12;;;;;;;2.60;2.43;;;1.10;95.10;;;;;;5054164;28;20190;-76
2024/01/15 09:17:38;;;;;;;4.20;2.83;;;1.10;88.60;;;;;;5056544;28;20429;-79
2024/01/15 09:20:05;;;;;;;2.30;2.10;;;1.10;88.60;;;;;;5056370;28;20232;-79
2024/01/15 09:22:31;;;;;;;4.93;2.50;;;1.00;88.50;;;;;;5056403;28;20250;-80
2024/01/15 09:24:57;;;;;;;2.60;2.20;;;1.00;88.60;;;;;;5055485;28;20831;-80
2024/01/15 09:27:22;;;;;;;3.60;2.07;;;1.00;88.50;;;;;;5056237;28;20408;-72
2024/01/15 09:29:48;;;;;;;4.80;2.60;;;1.00;88.60;;;;;;5055961;28;20171;-79
2024/01/15 09:32:15;;;;;;;7.60;2.83;;;1.00;88.50;;;;;;5056018;28;20213;-79
2024/01/15 09:34:41;;;;;;;2.63;2.43;;;1.00;88.60;;;;;;5054666;28;20564;-70
2024/01/15 09:37:07;;;;;;;5.77;2.97;;;1.00;88.60;;;;;;5056121;28;20492;-79
2024/01/15 09:39:32;;;;;;;3.47;2.60;;;1.00;88.50;;;;;;5056134;28;20678;-69
2024/01/15 09:41:59;;;;;;;4.60;2.60;;;1.00;88.60;;;;;;5056030;28;20641;-69
2024/01/15 09:44:26;;;;;;;2.40;2.20;;;1.00;88.50;;;;;;5055630;28;20175;-78
2024/01/15 09:46:52;;;;;;;2.20;2.00;;;1.10;88.60;;;;;;5053937;28;20924;-79
2024/01/15 09:49:18;;;;;;;4.17;2.33;;;1.00;88.60;;;;;;5055285;28;20504;-75
2024/01/15 09:51:45;;;;;;;3.93;2.67;;;1.10;88.60;;;;;;5054525;28;20240;-69
2024/01/15 09:54:13;;;;;;;3.00;2.70;;;1.20;88.80;;;;;;5054456;28;20475;-79
2024/01/15 09:56:39;;;;;;;3.50;3.03;;;1.20;88.70;;;;;;5054855;28;20410;-78
2024/01/15 09:59:06;;;;;;;2.67;2.47;;;1.30;88.80;;;;;;5054678;28;20421;-69
2024/01/15 10:01:32;;;;;;;2.70;2.30;;;1.30;88.80;;;;;;5055724;28;20408;-69
2024/01/15 10:04:01;;;;;;;2.70;2.00;;;1.20;79.90;;;;;;5055490;28;20409;-78
2024/01/15 10:06:30;;;;;;;3.40;2.40;;;1.20;79.00;;;;;;5054547;28;20439;-69
2024/01/15 10:09:00;;;;;;;3.47;2.17;;;1.10;75.30;;;;;;5054902;28;20421;-71
2024/01/15 10:11:26;;;;;;;3.83;2.87;;;1.10;75.80;;;;;;5055477;28;20405;-70
2024/01/15 10:13:53;;;;;;;2.57;2.20;;;1.10;80.60;;;;;;5055376;28;20498;-71
2024/01/15 10:16:21;;;;;;;2.10;2.00;;;1.10;72.00;;;;;;5054508;28;20459;-76
2024/01/15 10:18:48;;;;;;;3.57;2.20;;;1.10;68.20;;;;;;5055191;28;21059;-69
2024/01/15 10:21:14;;;;;;;2.30;1.97;;;1.10;61.70;;;;;;5054002;28;20424;-76
2024/01/15 10:23:40;;;;;;;5.67;2.63;;;1.10;63.20;;;;;;5055424;28;20413;-71
2024/01/15 10:26:06;;;;;;;5.20;2.30;;;1.20;61.90;;;;;;5052422;28;20417;-80
2024/01/15 10:28:32;;;;;;;3.00;2.20;;;1.20;58.30;;;;;;5053732;28;20683;-79
2024/01/15 10:30:59;;;;;;;3.23;2.77;;;1.30;51.80;;;;;;5055008;28;20413;-72
2024/01/15 10:33:25;;;;;;;4.17;2.30;;;1.30;51.90;;;;;;5055024;28;20453;-69
2024/01/15 10:35:55;;;;;;;2.67;2.47;;;1.40;48.40;;;;;;5053921;28;20966;-79
2024/01/15 10:38:22;;;;;;;2.27;2.13;;;1.40;42.90;;;;;;5054912;28;20475;-79
2024/01/15 10:40:50;;;;;;;1.83;1.73;;;1.40;39.00;;;;;;5054809;28;20480;-71
2024/01/15 10:43:17;;;;;;;5.50;2.70;;;1.40;34.20;;;;;;5053784;28;20417;-76
2024/01/15 10:45:51;;;;;;;14.77;2.30;;;1.40;26.20;;;;;;5053234;28;20409;-80
2024/01/15 10:48:19;;;;;;;4.53;2.07;;;1.40;27.10;;;;;;5054769;28;20429;-79
2024/01/15 10:50:46;;;;;;;2.63;2.43;;;1.50;26.00;;;;;;5054687;28;20471;-71
2024/01/15 10:53:14;;;;;;;3.10;2.00;;;1.50;25.50;;;;;;5054645;28;20445;-71
2024/01/15 10:55:42;;;;;;;4.93;2.03;;;1.50;25.20;;;;;;5053905;28;20424;-79
2024/01/15 10:58:09;;;;;;;2.27;1.97;;;1.50;22.50;;;;;;5054529;28;20778;-80
2024/01/15 11:00:39;;;;;;;2.73;1.83;;;1.60;20.70;;;;;;5053638;28;20451;-70
2024/01/15 11:03:06;;;;;;;2.63;2.40;;;1.60;16.00;;;;;;5053709;28;20891;-76
2024/01/15 11:05:45;;;;;;;2.50;2.30;;;1.60;17.20;;;;;;5053536;28;20847;-71
2024/01/15 11:08:13;;;;;;;4.57;1.97;;;1.70;12.80;;;;;;5054032;28;20447;-75
2024/01/15 11:10:46;;;;;;;3.10;1.93;;;1.70;13.30;;;;;;5054052;28;20948;-70
2024/01/15 11:13:33;;;;;;;3.30;2.13;;;1.70;7.80;;;;;;5054248;28;20461;-70
2024/01/15 11:16:10;;;;;;;2.33;2.20;;;1.70;1.00;;;;;;5053391;28;20404;-70
2024/01/15 11:18:42;;;;;;;3.93;2.30;;;1.70;1.00;;;;;;5053589;28;20457;-78
2024/01/15 11:21:17;;;;;;;5.37;2.10;;;1.60;1.00;;;;;;5053728;28;20401;-77
2024/01/15 11:23:46;;;;;;;13.63;2.73;;;1.70;1.00;;;;;;5054198;28;20409;-71
2024/01/15 11:26:28;;;;;;;2.50;2.30;;;1.60;1.00;;;;;;5053200;28;20414;-71
2024/01/15 11:28:55;;;;;;;2.50;2.30;;;1.60;1.00;;;;;;5053902;28;20926;-79
2024/01/15 11:31:29;;;;;;;2.33;2.00;;;1.50;1.00;;;;;;5052603;28;20421;-70
2024/01/15 11:33:55;;;;;;;3.43;1.80;;;1.50;1.00;;;;;;5053818;28;20561;-80
2024/01/15 11:36:53;;;;;;;2.23;2.13;;;1.50;1.00;;;;;;5052635;28;20484;-71
2024/01/15 11:39:28;;;;;;;1.93;1.83;;;1.30;1.00;;;;;;5049842;28;20702;-80
2024/01/15 11:41:58;;;;;;;2.83;2.40;;;1.30;1.00;;;;;;5052516;28;20913;-80
2024/01/15 11:44:25;;;;;;;2.87;2.50;;;1.30;1.00;;;;;;5053625;28;20419;-73
2024/01/15 11:47:00;;;;;;;3.77;2.13;;;1.40;1.00;;;;;;5053008;28;20410;-71
2024/01/15 11:50:05;;;;;;;4.20;2.17;;;1.50;1.00;;;;;;5053537;28;20833;-77
2024/01/15 11:52:38;;;;;;;7.13;2.27;;;1.50;1.00;;;;;;5053607;28;20404;-80
2024/01/15 11:55:38;;;;;;;6.93;2.00;;;1.50;1.00;;;;;;5051250;28;20461;-71
2024/01/15 11:58:12;;;;;;;2.10;2.00;;;1.50;1.00;;;;;;5052952;28;20810;-80
2024/01/15 12:00:49;;;;;;;3.40;2.47;;;1.50;1.00;;;;;;5053401;28;20405;-71
2024/01/15 12:03:15;;;;;;;2.73;2.53;;;1.60;1.00;;;;;;5053253;28;20901;-72
2024/01/15 12:05:41;;;;;;;7.10;2.20;;;1.60;1.00;;;;;;5052421;28;20421;-72
2024/01/15 12:08:10;;;;;;;2.47;2.37;;;1.60;1.00;;;;;;5053265;28;20269;-79
2024/01/15 12:10:40;;;;;;;2.77;2.03;;;1.70;1.00;;;;;;5053335;28;20412;-71
2024/01/15 12:13:13;;;;;;;10.63;2.63;;;1.70;1.00;;;;;;5053148;28;20453;-72
2024/01/15 12:15:43;;;;;;;2.27;2.17;;;1.80;1.00;;;;;;5052170;28;20400;-72
2024/01/15 12:18:11;;;;;;;2.47;2.00;;;1.70;1.00;;;;;;5051360;28;20965;-74
2024/01/15 12:20:37;;;;;;;2.37;2.17;;;1.60;1.00;;;;;;5053172;28;20882;-78
2024/01/15 12:23:04;;;;;;;4.33;2.17;;;1.70;1.00;;;;;;5052626;28;20454;-79
2024/01/15 12:25:30;;;;;;;4.13;2.33;;;1.70;1.00;;;;;;5052132;28;20466;-72
2024/01/15 12:27:57;;;;;;;2.80;1.70;;;1.60;1.00;;;;;;5051950;28;20433;-81
2024/01/15 12:30:22;;;;;;;1.93;1.83;;;1.60;1.00;;;;;;5053055;28;20539;-71
2024/01/15 12:32:48;;;;;;;2.73;2.17;;;1.60;1.00;;;;;;5053015;28;20492;-78
2024/01/15 12:35:17;;;;;;;7.43;2.07;;;1.60;1.00;;;;;;5051565;28;20175;-80
2024/01/15 12:37:46;;;;;;;2.60;2.20;;;1.60;1.00;;;;;;5052928;28;20191;-80
2024/01/15 12:40:12;;;;;;;3.10;2.80;;;1.60;1.00;;;;;;5052946;28;20463;-80
2024/01/15 12:42:40;;;;;;;3.63;2.37;;;1.60;1.00;;;;;;5051672;28;20504;-80
2024/01/15 12:45:06;;;;;;;2.27;2.07;;;1.70;1.00;;;;;;5052151;28;20455;-79
2024/01/15 12:47:32;;;;;;;12.67;2.67;;;1.70;1.00;;;;;;5052849;28;20928;-72
2024/01/15 12:49:59;;;;;;;5.33;2.20;;;1.70;1.00;;;;;;5052972;28;20445;-81
2024/01/15 12:52:28;;;;;;;1.90;1.80;;;1.70;1.00;;;;;;5052279;28;20224;-71
2024/01/15 12:54:53;;;;;;;8.00;2.10;;;1.60;1.00;;;;;;5051886;28;20453;-76
2024/01/15 12:57:19;;;;;;;2.77;2.57;;;1.70;1.00;;;;;;5052829;28;20412;-77